sensor_id;sensor_type;location;lat;lon;timestamp;pressure;altitude;pressure_sealevel;temperature
67515;BMP280;60646;55.802;37.032;2023-09-19T00:01:35;100234.22;;;15.90
67515;BMP280;60646;55.802;37.032;2023-09-19T00:04:01;100259.75;;;16.08
67515;BMP280;60646;55.802;37.032;2023-09-19T00:06:29;100247.38;;;15.99
67515;BMP280;60646;55.802;37.032;2023-09-19T00:08:57;100243.94;;;15.99
67515;BMP280;60646;55.802;37.032;2023-09-19T00:11:26;100249.97;;;16.05
67515;BMP280;60646;55.802;37.032;2023-09-19T00:13:53;100199.34;;;15.74
67515;BMP280;60646;55.802;37.032;2023-09-19T00:16:19;100235.56;;;16.02
67515;BMP280;60646;55.802;37.032;2023-09-19T00:18:45;100224.63;;;15.95
67515;BMP280;60646;55.802;37.032;2023-09-19T00:21:11;100248.41;;;16.15
67515;BMP280;60646;55.802;37.032;2023-09-19T00:23:37;100250.63;;;16.17
67515;BMP280;60646;55.802;37.032;2023-09-19T00:26:03;100232.81;;;16.08
67515;BMP280;60646;55.802;37.032;2023-09-19T00:28:29;100221.81;;;16.06
67515;BMP280;60646;55.802;37.032;2023-09-19T00:30:55;100212.75;;;16.03
67515;BMP280;60646;55.802;37.032;2023-09-19T00:33:24;100238.75;;;16.25
67515;BMP280;60646;55.802;37.032;2023-09-19T00:35:53;100240.94;;;16.27
67515;BMP280;60646;55.802;37.032;2023-09-19T00:38:21;100225.38;;;16.14
67515;BMP280;60646;55.802;37.032;2023-09-19T00:40:49;100246.03;;;16.30
67515;BMP280;60646;55.802;37.032;2023-09-19T00:43:16;100239.97;;;16.24
67515;BMP280;60646;55.802;37.032;2023-09-19T00:45:44;100232.63;;;16.25
67515;BMP280;60646;55.802;37.032;2023-09-19T00:48:11;100239.44;;;16.31
67515;BMP280;60646;55.802;37.032;2023-09-19T00:50:38;100213.59;;;16.17
67515;BMP280;60646;55.802;37.032;2023-09-19T00:53:07;100237.91;;;16.36
67515;BMP280;60646;55.802;37.032;2023-09-19T00:55:39;100215.53;;;16.22
67515;BMP280;60646;55.802;37.032;2023-09-19T00:58:06;100206.44;;;16.20
67515;BMP280;60646;55.802;37.032;2023-09-19T01:00:33;100229.50;;;16.39
67515;BMP280;60646;55.802;37.032;2023-09-19T01:03:00;100235.34;;;16.43
67515;BMP280;60646;55.802;37.032;2023-09-19T01:05:29;100220.03;;;16.33
67515;BMP280;60646;55.802;37.032;2023-09-19T01:07:58;100209.81;;;16.26
67515;BMP280;60646;55.802;37.032;2023-09-19T01:10:24;100209.75;;;16.31
67515;BMP280;60646;55.802;37.032;2023-09-19T01:15:53;100217.28;;;16.38
67515;BMP280;60646;55.802;37.032;2023-09-19T01:18:35;100226.75;;;16.45
67515;BMP280;60646;55.802;37.032;2023-09-19T01:21:23;100229.16;;;16.48
67515;BMP280;60646;55.802;37.032;2023-09-19T01:27:04;100227.50;;;16.45
67515;BMP280;60646;55.802;37.032;2023-09-19T01:29:42;100216.81;;;16.34
67515;BMP280;60646;55.802;37.032;2023-09-19T01:32:11;100232.50;;;16.36
67515;BMP280;60646;55.802;37.032;2023-09-19T01:34:53;100229.06;;;16.35
67515;BMP280;60646;55.802;37.032;2023-09-19T01:37:21;100232.56;;;16.30
67515;BMP280;60646;55.802;37.032;2023-09-19T01:40:06;100220.56;;;16.31
67515;BMP280;60646;55.802;37.032;2023-09-19T01:43:03;100207.03;;;16.13
67515;BMP280;60646;55.802;37.032;2023-09-19T01:45:52;100186.47;;;16.09
67515;BMP280;60646;55.802;37.032;2023-09-19T01:51:10;100197.75;;;16.08
67515;BMP280;60646;55.802;37.032;2023-09-19T01:54:00;100199.66;;;16.13
67515;BMP280;60646;55.802;37.032;2023-09-19T01:56:34;100209.78;;;16.07
67515;BMP280;60646;55.802;37.032;2023-09-19T01:59:06;100209.84;;;16.01
67515;BMP280;60646;55.802;37.032;2023-09-19T02:01:36;100192.88;;;15.82
67515;BMP280;60646;55.802;37.032;2023-09-19T02:04:04;100199.69;;;15.89
67515;BMP280;60646;55.802;37.032;2023-09-19T02:06:31;100188.41;;;15.90
67515;BMP280;60646;55.802;37.032;2023-09-19T02:08:57;100162.94;;;15.67
67515;BMP280;60646;55.802;37.032;2023-09-19T02:11:25;100187.44;;;15.88
67515;BMP280;60646;55.802;37.032;2023-09-19T02:13:51;100169.94;;;15.76
67515;BMP280;60646;55.802;37.032;2023-09-19T02:16:20;100177.44;;;15.83
67515;BMP280;60646;55.802;37.032;2023-09-19T02:18:48;100171.09;;;15.80
67515;BMP280;60646;55.802;37.032;2023-09-19T02:21:15;100169.16;;;15.81
67515;BMP280;60646;55.802;37.032;2023-09-19T02:23:43;100171.28;;;15.88
67515;BMP280;60646;55.802;37.032;2023-09-19T02:26:10;100175.19;;;15.87
67515;BMP280;60646;55.802;37.032;2023-09-19T02:28:37;100174.69;;;15.88
67515;BMP280;60646;55.802;37.032;2023-09-19T02:31:03;100154.81;;;15.73
67515;BMP280;60646;55.802;37.032;2023-09-19T02:33:31;100168.38;;;15.86
67515;BMP280;60646;55.802;37.032;2023-09-19T02:36:01;100160.50;;;15.88
67515;BMP280;60646;55.802;37.032;2023-09-19T02:38:29;100176.84;;;15.95
67515;BMP280;60646;55.802;37.032;2023-09-19T02:40:55;100142.56;;;15.72
67515;BMP280;60646;55.802;37.032;2023-09-19T02:43:22;100159.28;;;15.89
67515;BMP280;60646;55.802;37.032;2023-09-19T02:45:49;100177.28;;;15.99
67515;BMP280;60646;55.802;37.032;2023-09-19T02:48:16;100174.88;;;15.96
67515;BMP280;60646;55.802;37.032;2023-09-19T02:50:42;100149.78;;;15.82
67515;BMP280;60646;55.802;37.032;2023-09-19T02:53:10;100143.91;;;15.84
67515;BMP280;60646;55.802;37.032;2023-09-19T02:55:39;100144.31;;;15.88
67515;BMP280;60646;55.802;37.032;2023-09-19T02:58:07;100151.88;;;15.95
67515;BMP280;60646;55.802;37.032;2023-09-19T03:00:41;100153.53;;;15.98
67515;BMP280;60646;55.802;37.032;2023-09-19T03:03:08;100156.16;;;16.03
67515;BMP280;60646;55.802;37.032;2023-09-19T03:05:35;100142.00;;;15.97
67515;BMP280;60646;55.802;37.032;2023-09-19T03:08:03;100155.44;;;16.03
67515;BMP280;60646;55.802;37.032;2023-09-19T03:10:30;100151.78;;;16.00
67515;BMP280;60646;55.802;37.032;2023-09-19T03:12:58;100160.69;;;16.14
67515;BMP280;60646;55.802;37.032;2023-09-19T03:15:27;100162.16;;;16.15
67515;BMP280;60646;55.802;37.032;2023-09-19T03:17:53;100159.03;;;16.11
67515;BMP280;60646;55.802;37.032;2023-09-19T03:20:22;100166.38;;;16.29
67515;BMP280;60646;55.802;37.032;2023-09-19T03:22:49;100168.34;;;16.29
67515;BMP280;60646;55.802;37.032;2023-09-19T03:25:16;100162.03;;;16.26
67515;BMP280;60646;55.802;37.032;2023-09-19T03:27:46;100166.81;;;16.33
67515;BMP280;60646;55.802;37.032;2023-09-19T03:30:13;100156.81;;;16.28
67515;BMP280;60646;55.802;37.032;2023-09-19T03:32:48;100179.56;;;16.51
67515;BMP280;60646;55.802;37.032;2023-09-19T03:35:17;100182.28;;;16.51
67515;BMP280;60646;55.802;37.032;2023-09-19T03:37:43;100181.78;;;16.53
67515;BMP280;60646;55.802;37.032;2023-09-19T03:40:11;100176.88;;;16.51
67515;BMP280;60646;55.802;37.032;2023-09-19T03:42:41;100186.06;;;16.61
67515;BMP280;60646;55.802;37.032;2023-09-19T03:45:09;100185.56;;;16.63
67515;BMP280;60646;55.802;37.032;2023-09-19T03:47:42;100165.06;;;16.54
67515;BMP280;60646;55.802;37.032;2023-09-19T03:50:10;100185.75;;;16.65
67515;BMP280;60646;55.802;37.032;2023-09-19T03:52:37;100184.22;;;16.69
67515;BMP280;60646;55.802;37.032;2023-09-19T03:55:03;100152.84;;;16.53
67515;BMP280;60646;55.802;37.032;2023-09-19T03:57:30;100165.06;;;16.73
67515;BMP280;60646;55.802;37.032;2023-09-19T03:59:56;100161.34;;;16.76
67515;BMP280;60646;55.802;37.032;2023-09-19T04:02:22;100123.19;;;16.53
67515;BMP280;60646;55.802;37.032;2023-09-19T04:04:50;100150.47;;;16.82
67515;BMP280;60646;55.802;37.032;2023-09-19T04:07:17;100150.47;;;16.82
67515;BMP280;60646;55.802;37.032;2023-09-19T04:09:45;100134.66;;;16.72
67515;BMP280;60646;55.802;37.032;2023-09-19T04:12:11;100140.97;;;16.75
67515;BMP280;60646;55.802;37.032;2023-09-19T04:14:37;100127.81;;;16.71
67515;BMP280;60646;55.802;37.032;2023-09-19T04:17:04;100105.28;;;16.50
67515;BMP280;60646;55.802;37.032;2023-09-19T04:19:31;100123.94;;;16.67
67515;BMP280;60646;55.802;37.032;2023-09-19T04:21:57;100151.41;;;16.84
67515;BMP280;60646;55.802;37.032;2023-09-19T04:24:23;100149.56;;;16.92
67515;BMP280;60646;55.802;37.032;2023-09-19T04:26:48;100130.53;;;16.85
67515;BMP280;60646;55.802;37.032;2023-09-19T04:29:14;100117.03;;;16.85
67515;BMP280;60646;55.802;37.032;2023-09-19T04:31:40;100134.19;;;17.00
67515;BMP280;60646;55.802;37.032;2023-09-19T04:34:06;100140.56;;;17.03
67515;BMP280;60646;55.802;37.032;2023-09-19T04:36:33;100139.50;;;17.06
67515;BMP280;60646;55.802;37.032;2023-09-19T04:39:03;100137.22;;;17.10
67515;BMP280;60646;55.802;37.032;2023-09-19T04:41:33;100112.91;;;16.97
67515;BMP280;60646;55.802;37.032;2023-09-19T04:44:00;100106.69;;;17.02
67515;BMP280;60646;55.802;37.032;2023-09-19T04:46:26;100105.88;;;17.07
67515;BMP280;60646;55.802;37.032;2023-09-19T04:48:52;100125.22;;;17.24
67515;BMP280;60646;55.802;37.032;2023-09-19T04:51:18;100111.59;;;17.16
67515;BMP280;60646;55.802;37.032;2023-09-19T04:53:44;100115.66;;;17.23
67515;BMP280;60646;55.802;37.032;2023-09-19T04:56:10;100114.63;;;17.26
67515;BMP280;60646;55.802;37.032;2023-09-19T04:58:36;100118.19;;;17.34
67515;BMP280;60646;55.802;37.032;2023-09-19T05:01:02;100116.38;;;17.36
67515;BMP280;60646;55.802;37.032;2023-09-19T05:03:28;100130.63;;;17.50
67515;BMP280;60646;55.802;37.032;2023-09-19T05:05:54;100095.09;;;17.33
67515;BMP280;60646;55.802;37.032;2023-09-19T05:08:20;100114.41;;;17.50
67515;BMP280;60646;55.802;37.032;2023-09-19T05:10:48;100109.88;;;17.58
67515;BMP280;60646;55.802;37.032;2023-09-19T05:13:14;100130.66;;;17.76
67515;BMP280;60646;55.802;37.032;2023-09-19T05:15:40;100120.44;;;17.82
67515;BMP280;60646;55.802;37.032;2023-09-19T05:18:06;100114.19;;;17.87
67515;BMP280;60646;55.802;37.032;2023-09-19T05:20:32;100088.31;;;17.79
67515;BMP280;60646;55.802;37.032;2023-09-19T05:23:02;100117.69;;;18.08
67515;BMP280;60646;55.802;37.032;2023-09-19T05:25:31;100103.97;;;18.06
67515;BMP280;60646;55.802;37.032;2023-09-19T05:27:58;100122.84;;;18.20
67515;BMP280;60646;55.802;37.032;2023-09-19T05:30:27;100108.72;;;18.13
67515;BMP280;60646;55.802;37.032;2023-09-19T05:32:55;100115.13;;;18.24
67515;BMP280;60646;55.802;37.032;2023-09-19T05:35:22;100126.97;;;18.34
67515;BMP280;60646;55.802;37.032;2023-09-19T05:38:07;100118.00;;;18.39
67515;BMP280;60646;55.802;37.032;2023-09-19T05:40:38;100099.81;;;18.39
67515;BMP280;60646;55.802;37.032;2023-09-19T05:43:06;100123.53;;;18.54
67515;BMP280;60646;55.802;37.032;2023-09-19T05:45:32;100117.84;;;18.57
67515;BMP280;60646;55.802;37.032;2023-09-19T05:48:07;100105.72;;;18.58
67515;BMP280;60646;55.802;37.032;2023-09-19T05:50:33;100106.31;;;18.64
67515;BMP280;60646;55.802;37.032;2023-09-19T05:52:59;100091.78;;;18.54
67515;BMP280;60646;55.802;37.032;2023-09-19T05:55:25;100098.94;;;18.65
67515;BMP280;60646;55.802;37.032;2023-09-19T05:57:52;100096.22;;;18.65
67515;BMP280;60646;55.802;37.032;2023-09-19T06:00:22;100113.84;;;18.79
67515;BMP280;60646;55.802;37.032;2023-09-19T06:02:52;100087.03;;;18.68
67515;BMP280;60646;55.802;37.032;2023-09-19T06:05:18;100104.09;;;18.76
67515;BMP280;60646;55.802;37.032;2023-09-19T06:07:44;100099.25;;;18.82
67515;BMP280;60646;55.802;37.032;2023-09-19T06:10:10;100108.47;;;18.86
67515;BMP280;60646;55.802;37.032;2023-09-19T06:12:40;100128.69;;;19.06
67515;BMP280;60646;55.802;37.032;2023-09-19T06:15:06;100114.91;;;19.04
67515;BMP280;60646;55.802;37.032;2023-09-19T06:17:38;100116.13;;;19.16
67515;BMP280;60646;55.802;37.032;2023-09-19T06:20:05;100116.50;;;19.20
67515;BMP280;60646;55.802;37.032;2023-09-19T06:22:39;100090.75;;;19.06
67515;BMP280;60646;55.802;37.032;2023-09-19T06:25:08;100090.84;;;19.21
67515;BMP280;60646;55.802;37.032;2023-09-19T06:27:38;100105.34;;;19.31
67515;BMP280;60646;55.802;37.032;2023-09-19T06:30:05;100093.97;;;19.25
67515;BMP280;60646;55.802;37.032;2023-09-19T06:32:32;100097.78;;;19.30
67515;BMP280;60646;55.802;37.032;2023-09-19T06:34:58;100072.22;;;19.18
67515;BMP280;60646;55.802;37.032;2023-09-19T06:37:27;100109.75;;;19.42
67515;BMP280;60646;55.802;37.032;2023-09-19T06:39:53;100088.34;;;19.31
67515;BMP280;60646;55.802;37.032;2023-09-19T06:42:19;100087.31;;;19.34
67515;BMP280;60646;55.802;37.032;2023-09-19T06:44:45;100096.06;;;19.47
67515;BMP280;60646;55.802;37.032;2023-09-19T06:47:11;100083.53;;;19.44
67515;BMP280;60646;55.802;37.032;2023-09-19T06:49:37;100071.06;;;19.41
67515;BMP280;60646;55.802;37.032;2023-09-19T06:52:02;100055.69;;;19.36
67515;BMP280;60646;55.802;37.032;2023-09-19T06:54:28;100066.03;;;19.45
67515;BMP280;60646;55.802;37.032;2023-09-19T06:56:59;100075.13;;;19.55
67515;BMP280;60646;55.802;37.032;2023-09-19T06:59:25;100064.63;;;19.52
67515;BMP280;60646;55.802;37.032;2023-09-19T07:01:51;100051.97;;;19.47
67515;BMP280;60646;55.802;37.032;2023-09-19T07:04:17;100059.03;;;19.57
67515;BMP280;60646;55.802;37.032;2023-09-19T07:06:51;100078.06;;;19.73
67515;BMP280;60646;55.802;37.032;2023-09-19T07:09:17;100071.59;;;19.76
67515;BMP280;60646;55.802;37.032;2023-09-19T07:11:45;100088.94;;;19.88
67515;BMP280;60646;55.802;37.032;2023-09-19T07:14:13;100050.94;;;19.73
67515;BMP280;60646;55.802;37.032;2023-09-19T07:16:39;100064.53;;;19.88
67515;BMP280;60646;55.802;37.032;2023-09-19T07:19:08;100079.56;;;20.04
67515;BMP280;60646;55.802;37.032;2023-09-19T07:21:34;100078.38;;;20.20
67515;BMP280;60646;55.802;37.032;2023-09-19T07:24:01;100067.66;;;20.22
67515;BMP280;60646;55.802;37.032;2023-09-19T07:26:28;100041.28;;;20.15
67515;BMP280;60646;55.802;37.032;2023-09-19T07:28:54;100083.97;;;20.45
67515;BMP280;60646;55.802;37.032;2023-09-19T07:31:21;100075.84;;;20.52
67515;BMP280;60646;55.802;37.032;2023-09-19T07:33:48;100089.22;;;20.65
67515;BMP280;60646;55.802;37.032;2023-09-19T07:36:14;100064.44;;;20.61
67515;BMP280;60646;55.802;37.032;2023-09-19T07:38:41;100074.88;;;20.80
67515;BMP280;60646;55.802;37.032;2023-09-19T07:41:08;100080.13;;;20.85
67515;BMP280;60646;55.802;37.032;2023-09-19T07:43:37;100074.16;;;20.94
67515;BMP280;60646;55.802;37.032;2023-09-19T07:46:06;100051.72;;;20.86
67515;BMP280;60646;55.802;37.032;2023-09-19T07:48:35;100043.75;;;20.88
67515;BMP280;60646;55.802;37.032;2023-09-19T07:51:08;100063.25;;;21.09
67515;BMP280;60646;55.802;37.032;2023-09-19T07:53:35;100059.25;;;21.10
67515;BMP280;60646;55.802;37.032;2023-09-19T07:56:05;100043.31;;;21.07
67515;BMP280;60646;55.802;37.032;2023-09-19T07:58:31;100042.63;;;21.06
67515;BMP280;60646;55.802;37.032;2023-09-19T08:01:06;100029.19;;;21.08
67515;BMP280;60646;55.802;37.032;2023-09-19T08:03:40;100028.84;;;21.04
67515;BMP280;60646;55.802;37.032;2023-09-19T08:06:07;100059.19;;;21.26
67515;BMP280;60646;55.802;37.032;2023-09-19T08:08:34;100044.56;;;21.13
67515;BMP280;60646;55.802;37.032;2023-09-19T08:11:04;100043.66;;;21.19
67515;BMP280;60646;55.802;37.032;2023-09-19T08:13:38;100040.94;;;21.19
67515;BMP280;60646;55.802;37.032;2023-09-19T08:16:16;100069.84;;;21.39
67515;BMP280;60646;55.802;37.032;2023-09-19T08:18:49;100041.06;;;21.28
67515;BMP280;60646;55.802;37.032;2023-09-19T08:21:18;100065.09;;;21.47
67515;BMP280;60646;55.802;37.032;2023-09-19T08:23:44;100032.53;;;21.32
67515;BMP280;60646;55.802;37.032;2023-09-19T08:29:30;100069.81;;;21.46
67515;BMP280;60646;55.802;37.032;2023-09-19T08:31:57;100081.84;;;21.68
67515;BMP280;60646;55.802;37.032;2023-09-19T08:34:24;100069.84;;;21.71
67515;BMP280;60646;55.802;37.032;2023-09-19T08:36:51;100070.56;;;21.71
67515;BMP280;60646;55.802;37.032;2023-09-19T08:39:18;100061.69;;;21.71
67515;BMP280;60646;55.802;37.032;2023-09-19T08:41:45;100070.88;;;21.83
67515;BMP280;60646;55.802;37.032;2023-09-19T08:44:10;100052.38;;;21.81
67515;BMP280;60646;55.802;37.032;2023-09-19T08:46:37;100048.94;;;21.81
67515;BMP280;60646;55.802;37.032;2023-09-19T09:14:24;100037.63;;;19.82
67515;BMP280;60646;55.802;37.032;2023-09-19T09:16:50;100015.41;;;20.14
67515;BMP280;60646;55.802;37.032;2023-09-19T09:19:16;100004.19;;;20.48
67515;BMP280;60646;55.802;37.032;2023-09-19T09:21:50;100009.50;;;20.85
67515;BMP280;60646;55.802;37.032;2023-09-19T09:24:50;100017.91;;;21.20
67515;BMP280;60646;55.802;37.032;2023-09-19T09:27:21;100000.28;;;21.28
67515;BMP280;60646;55.802;37.032;2023-09-19T09:29:53;100012.66;;;21.54
67515;BMP280;60646;55.802;37.032;2023-09-19T09:32:27;99977.84;;;21.52
67515;BMP280;60646;55.802;37.032;2023-09-19T09:34:58;99998.72;;;21.82
67515;BMP280;60646;55.802;37.032;2023-09-19T09:37:26;99986.69;;;21.85
67515;BMP280;60646;55.802;37.032;2023-09-19T09:39:58;99987.00;;;21.97
67515;BMP280;60646;55.802;37.032;2023-09-19T09:42:45;99998.44;;;22.12
67515;BMP280;60646;55.802;37.032;2023-09-19T09:45:18;99987.66;;;22.22
67515;BMP280;60646;55.802;37.032;2023-09-19T09:48:11;99991.28;;;22.41
67515;BMP280;60646;55.802;37.032;2023-09-19T09:50:51;99984.69;;;22.44
67515;BMP280;60646;55.802;37.032;2023-09-19T09:53:23;99990.78;;;22.52
67515;BMP280;60646;55.802;37.032;2023-09-19T09:56:09;99983.53;;;22.55
67515;BMP280;60646;55.802;37.032;2023-09-19T09:58:49;99979.41;;;22.63
67515;BMP280;60646;55.802;37.032;2023-09-19T10:01:17;99997.59;;;22.78
67515;BMP280;60646;55.802;37.032;2023-09-19T10:03:50;99982.13;;;22.81
67515;BMP280;60646;55.802;37.032;2023-09-19T10:06:20;99969.06;;;22.79
67515;BMP280;60646;55.802;37.032;2023-09-19T10:09:08;99971.91;;;22.98
67515;BMP280;60646;55.802;37.032;2023-09-19T10:11:41;99968.66;;;23.00
67515;BMP280;60646;55.802;37.032;2023-09-19T10:14:21;99962.66;;;23.11
67515;BMP280;60646;55.802;37.032;2023-09-19T10:16:53;99978.66;;;23.24
67515;BMP280;60646;55.802;37.032;2023-09-19T10:19:33;99969.66;;;23.31
67515;BMP280;60646;55.802;37.032;2023-09-19T10:22:05;99954.13;;;23.24
67515;BMP280;60646;55.802;37.032;2023-09-19T10:24:42;99954.75;;;23.32
67515;BMP280;60646;55.802;37.032;2023-09-19T10:27:11;99961.81;;;23.44
67515;BMP280;60646;55.802;37.032;2023-09-19T10:29:40;99958.69;;;23.48
67515;BMP280;60646;55.802;37.032;2023-09-19T10:32:08;99958.72;;;23.57
67515;BMP280;60646;55.802;37.032;2023-09-19T10:34:38;99955.13;;;23.65
67515;BMP280;60646;55.802;37.032;2023-09-19T10:37:11;99927.84;;;23.55
67515;BMP280;60646;55.802;37.032;2023-09-19T10:39:39;99940.09;;;23.73
67515;BMP280;60646;55.802;37.032;2023-09-19T10:42:14;99943.84;;;23.87
67515;BMP280;60646;55.802;37.032;2023-09-19T10:44:47;99947.31;;;23.97
67515;BMP280;60646;55.802;37.032;2023-09-19T10:47:31;99931.22;;;24.01
67515;BMP280;60646;55.802;37.032;2023-09-19T10:50:07;99942.31;;;24.22
67515;BMP280;60646;55.802;37.032;2023-09-19T10:52:39;99929.06;;;24.19
67515;BMP280;60646;55.802;37.032;2023-09-19T10:55:16;99932.78;;;24.33
67515;BMP280;60646;55.802;37.032;2023-09-19T10:57:47;99923.13;;;24.41
67515;BMP280;60646;55.802;37.032;2023-09-19T11:00:19;99930.34;;;24.46
67515;BMP280;60646;55.802;37.032;2023-09-19T11:06:29;99924.56;;;24.71
67515;BMP280;60646;55.802;37.032;2023-09-19T11:09:00;99930.56;;;24.70
67515;BMP280;60646;55.802;37.032;2023-09-19T11:11:49;99923.38;;;24.74
67515;BMP280;60646;55.802;37.032;2023-09-19T11:30:39;99904.09;;;25.22
67515;BMP280;60646;55.802;37.032;2023-09-19T11:33:28;99899.97;;;25.32
67515;BMP280;60646;55.802;37.032;2023-09-19T11:49:28;99873.25;;;25.64
67515;BMP280;60646;55.802;37.032;2023-09-19T11:52:02;99861.75;;;25.65
67515;BMP280;60646;55.802;37.032;2023-09-19T11:54:35;99872.63;;;25.86
67515;BMP280;60646;55.802;37.032;2023-09-19T11:57:05;99872.38;;;26.03
67515;BMP280;60646;55.802;37.032;2023-09-19T11:59:38;99882.47;;;26.01
67515;BMP280;60646;55.802;37.032;2023-09-19T12:02:19;99870.44;;;25.94
67515;BMP280;60646;55.802;37.032;2023-09-19T12:05:03;99850.56;;;25.94
67515;BMP280;60646;55.802;37.032;2023-09-19T12:07:41;99847.09;;;25.93
67515;BMP280;60646;55.802;37.032;2023-09-19T12:10:11;99848.63;;;25.96
67515;BMP280;60646;55.802;37.032;2023-09-19T12:12:48;99841.88;;;25.97
67515;BMP280;60646;55.802;37.032;2023-09-19T12:15:17;99851.53;;;25.98
67515;BMP280;60646;55.802;37.032;2023-09-19T12:17:57;99836.41;;;25.97
67515;BMP280;60646;55.802;37.032;2023-09-19T12:20:26;99846.78;;;25.99
67515;BMP280;60646;55.802;37.032;2023-09-19T12:23:13;99846.66;;;26.08
67515;BMP280;60646;55.802;37.032;2023-09-19T12:25:42;99845.13;;;26.05
67515;BMP280;60646;55.802;37.032;2023-09-19T12:28:12;99854.44;;;26.23
67515;BMP280;60646;55.802;37.032;2023-09-19T12:30:44;99832.47;;;26.00
67515;BMP280;60646;55.802;37.032;2023-09-19T12:33:21;99839.38;;;26.01
67515;BMP280;60646;55.802;37.032;2023-09-19T12:35:52;99826.72;;;25.96
67515;BMP280;60646;55.802;37.032;2023-09-19T12:38:28;99838.31;;;26.06
67515;BMP280;60646;55.802;37.032;2023-09-19T12:40:56;99827.31;;;25.95
67515;BMP280;60646;55.802;37.032;2023-09-19T12:43:28;99827.19;;;25.93
67515;BMP280;60646;55.802;37.032;2023-09-19T12:46:13;99831.75;;;26.00
67515;BMP280;60646;55.802;37.032;2023-09-19T12:48:42;99831.75;;;26.00
67515;BMP280;60646;55.802;37.032;2023-09-19T12:51:16;99835.09;;;26.10
67515;BMP280;60646;55.802;37.032;2023-09-19T12:53:57;99836.78;;;26.03
67515;BMP280;60646;55.802;37.032;2023-09-19T12:56:25;99830.06;;;25.95
67515;BMP280;60646;55.802;37.032;2023-09-19T12:58:55;99844.63;;;26.09
67515;BMP280;60646;55.802;37.032;2023-09-19T13:01:23;99844.63;;;26.09
67515;BMP280;60646;55.802;37.032;2023-09-19T13:04:14;99835.97;;;26.12
67515;BMP280;60646;55.802;37.032;2023-09-19T13:06:58;99828.09;;;26.07
67515;BMP280;60646;55.802;37.032;2023-09-19T13:09:28;99828.19;;;26.09
67515;BMP280;60646;55.802;37.032;2023-09-19T13:12:00;99802.00;;;25.94
67515;BMP280;60646;55.802;37.032;2023-09-19T13:14:31;99826.53;;;26.15
67515;BMP280;60646;55.802;37.032;2023-09-19T13:22:43;99808.22;;;26.18
67515;BMP280;60646;55.802;37.032;2023-09-19T13:25:21;99794.88;;;26.12
67515;BMP280;60646;55.802;37.032;2023-09-19T13:27:56;99805.25;;;26.25
67515;BMP280;60646;55.802;37.032;2023-09-19T13:30:26;99815.25;;;26.32
67515;BMP280;60646;55.802;37.032;2023-09-19T13:33:15;99802.03;;;26.41
67515;BMP280;60646;55.802;37.032;2023-09-19T13:35:46;99809.56;;;26.52
67515;BMP280;60646;55.802;37.032;2023-09-19T13:38:17;99789.31;;;26.33
67515;BMP280;60646;55.802;37.032;2023-09-19T13:40:50;99786.31;;;26.29
67515;BMP280;60646;55.802;37.032;2023-09-19T13:43:31;99784.88;;;26.28
67515;BMP280;60646;55.802;37.032;2023-09-19T13:46:06;99782.53;;;26.35
67515;BMP280;60646;55.802;37.032;2023-09-19T13:48:44;99777.25;;;26.27
67515;BMP280;60646;55.802;37.032;2023-09-19T13:51:13;99768.94;;;26.25
67515;BMP280;60646;55.802;37.032;2023-09-19T13:53:40;99775.13;;;26.25
67515;BMP280;60646;55.802;37.032;2023-09-19T13:56:06;99777.97;;;26.27
67515;BMP280;60646;55.802;37.032;2023-09-19T13:58:33;99772.16;;;26.21
67515;BMP280;60646;55.802;37.032;2023-09-19T14:01:02;99772.25;;;26.23
67515;BMP280;60646;55.802;37.032;2023-09-19T14:03:32;99779.53;;;26.30
67515;BMP280;60646;55.802;37.032;2023-09-19T14:05:58;99781.31;;;26.26
67515;BMP280;60646;55.802;37.032;2023-09-19T14:08:24;99769.16;;;26.17
67515;BMP280;60646;55.802;37.032;2023-09-19T14:10:53;99777.72;;;26.23
67515;BMP280;60646;55.802;37.032;2023-09-19T14:13:19;99772.72;;;26.20
67515;BMP280;60646;55.802;37.032;2023-09-19T14:15:53;99768.06;;;26.22
67515;BMP280;60646;55.802;37.032;2023-09-19T14:18:19;99773.94;;;26.17
67515;BMP280;60646;55.802;37.032;2023-09-19T14:20:50;99760.81;;;26.15
67515;BMP280;60646;55.802;37.032;2023-09-19T14:23:35;99782.00;;;26.26
67515;BMP280;60646;55.802;37.032;2023-09-19T14:26:02;99777.25;;;26.15
67515;BMP280;60646;55.802;37.032;2023-09-19T14:28:28;99765.81;;;26.07
67515;BMP280;60646;55.802;37.032;2023-09-19T14:31:03;99778.44;;;26.12
67515;BMP280;60646;55.802;37.032;2023-09-19T14:33:29;99751.50;;;25.97
67515;BMP280;60646;55.802;37.032;2023-09-19T14:35:55;99740.78;;;25.90
67515;BMP280;60646;55.802;37.032;2023-09-19T14:38:21;99740.06;;;25.89
67515;BMP280;60646;55.802;37.032;2023-09-19T14:40:59;99748.88;;;25.99
67515;BMP280;60646;55.802;37.032;2023-09-19T14:43:25;99751.00;;;25.89
67515;BMP280;60646;55.802;37.032;2023-09-19T14:45:52;99751.94;;;25.82
67515;BMP280;60646;55.802;37.032;2023-09-19T14:48:18;99750.06;;;25.85
67515;BMP280;60646;55.802;37.032;2023-09-19T14:50:46;99756.59;;;25.80
67515;BMP280;60646;55.802;37.032;2023-09-19T14:53:16;99730.50;;;25.67
67515;BMP280;60646;55.802;37.032;2023-09-19T14:55:43;99752.19;;;25.75
67515;BMP280;60646;55.802;37.032;2023-09-19T14:58:13;99763.38;;;25.79
67515;BMP280;60646;55.802;37.032;2023-09-19T15:00:39;99753.81;;;25.68
67515;BMP280;60646;55.802;37.032;2023-09-19T15:03:06;99745.97;;;25.63
67515;BMP280;60646;55.802;37.032;2023-09-19T15:05:32;99761.78;;;25.64
67515;BMP280;60646;55.802;37.032;2023-09-19T15:07:59;99749.94;;;25.50
67515;BMP280;60646;55.802;37.032;2023-09-19T15:10:25;99745.66;;;25.47
67515;BMP280;60646;55.802;37.032;2023-09-19T15:12:54;99746.84;;;25.44
67515;BMP280;60646;55.802;37.032;2023-09-19T15:15:20;99744.91;;;25.35
67515;BMP280;60646;55.802;37.032;2023-09-19T15:17:46;99746.34;;;25.36
67515;BMP280;60646;55.802;37.032;2023-09-19T15:20:12;99746.06;;;25.32
67515;BMP280;60646;55.802;37.032;2023-09-19T15:22:40;99746.34;;;25.36